Time;durP1;ratioP1;P1;durP2;ratioP2;P2;SDS_P1;SDS_P2;PMS_P1;PMS_P2;Temp;Humidity;BMP_temperature;BMP_pressure;BME280_temperature;BME280_humidity;BME280_pressure;Samples;Min_cycle;Max_cycle;Signal;HPM_P1;HPM_P2
2023/01/04 00:01:19;;;;;;;18.02;7.65;;;;;;;2.86;78.45;102329.90;1719639;82;22614;-89
2023/01/04 00:03:46;;;;;;;12.35;4.62;;;;;;;2.83;78.47;102331.84;1711043;82;21613;-89
2023/01/04 00:06:14;;;;;;;19.77;10.03;;;;;;;2.80;78.52;102337.21;1710646;82;21692;-88
2023/01/04 00:08:42;;;;;;;15.98;9.73;;;;;;;2.78;78.52;102342.64;1707453;82;21627;-83
2023/01/04 00:11:17;;;;;;;20.70;9.83;;;;;;;2.76;78.53;102344.21;1687438;83;21887;-83
2023/01/04 00:13:44;;;;;;;13.40;6.92;;;;;;;2.73;78.59;102338.38;1709821;82;21763;-83
2023/01/04 00:16:16;;;;;;;12.40;5.80;;;;;;;2.70;78.61;102337.75;1698843;82;21093;-83
2023/01/04 00:18:43;;;;;;;14.68;5.22;;;;;;;2.68;78.65;102330.22;1698821;82;21087;-84
2023/01/04 00:21:25;;;;;;;8.40;4.10;;;;;;;2.64;78.57;102324.63;1708457;83;21524;-84
2023/01/04 00:23:54;;;;;;;11.53;4.40;;;;;;;2.55;78.45;102321.27;1717848;82;21576;-84
2023/01/04 00:26:27;;;;;;;10.90;4.58;;;;;;;2.48;78.48;102323.37;1675053;84;22665;-84
2023/01/04 00:28:58;;;;;;;26.63;12.23;;;;;;;2.45;78.58;102329.59;1650682;85;21083;-84
2023/01/04 00:31:26;;;;;;;20.72;7.97;;;;;;;2.41;78.71;102324.94;1706881;83;21392;-82
2023/01/04 00:33:55;;;;;;;14.10;6.47;;;;;;;2.37;78.74;102329.77;1724307;82;21117;-82
2023/01/04 00:36:22;;;;;;;30.45;11.75;;;;;;;2.31;78.76;102328.86;1710532;82;21119;-83
2023/01/04 00:39:08;;;;;;;90.72;35.50;;;;;;;2.24;78.83;102331.32;1709743;83;21743;-84
2023/01/04 00:41:39;;;;;;;66.35;25.97;;;;;;;2.23;79.02;102338.98;1709965;82;21480;-84
2023/01/04 00:44:06;;;;;;;122.00;41.10;;;;;;;2.20;79.12;102343.94;1707933;82;21099;-83
2023/01/04 00:46:33;;;;;;;175.70;67.60;;;;;;;2.19;79.23;102344.30;1713149;82;21091;-84
2023/01/04 00:49:00;;;;;;;112.90;49.15;;;;;;;2.18;79.29;102345.47;1720374;82;21400;-83
2023/01/04 00:51:28;;;;;;;90.55;40.95;;;;;;;2.13;79.36;102342.10;1719024;82;21717;-88
2023/01/04 00:53:55;;;;;;;74.00;35.85;;;;;;;2.15;79.44;102344.83;1707670;83;21064;-89
2023/01/04 00:56:21;;;;;;;99.25;46.70;;;;;;;2.13;79.42;102347.70;1709179;83;21616;-88
2023/01/04 00:58:48;;;;;;;95.57;46.58;;;;;;;2.12;79.43;102348.09;1713935;82;21043;-88
2023/01/04 01:01:17;;;;;;;56.15;27.13;;;;;;;2.12;79.47;102347.16;1708413;83;21136;-83
2023/01/04 01:03:44;;;;;;;113.10;52.50;;;;;;;2.10;79.50;102337.97;1710178;83;21835;-83
2023/01/04 01:06:11;;;;;;;130.57;55.20;;;;;;;2.08;79.44;102333.03;1709924;83;21070;-83
2023/01/04 01:08:38;;;;;;;36.85;16.30;;;;;;;2.09;79.52;102330.04;1724021;82;21082;-83
2023/01/04 01:11:07;;;;;;;16.90;8.33;;;;;;;2.09;79.56;102332.23;1717278;82;21546;-83
2023/01/04 01:13:34;;;;;;;43.90;18.25;;;;;;;2.07;79.57;102327.30;1707490;82;21126;-88
2023/01/04 01:16:08;;;;;;;71.77;28.90;;;;;;;2.07;79.67;102337.70;1708352;82;21777;-83
2023/01/04 01:18:41;;;;;;;95.72;39.10;;;;;;;2.08;79.68;102330.80;1707229;83;21068;-82
2023/01/04 01:21:14;;;;;;;89.47;42.85;;;;;;;2.08;79.63;102336.00;1707095;83;21071;-82
2023/01/04 01:23:42;;;;;;;;;;;;;;;2.06;79.66;102334.56;1710401;83;21064;-83
2023/01/04 01:26:12;;;;;;;134.70;70.12;;;;;;;2.05;79.68;102327.56;1707803;82;20207;-87
2023/01/04 01:28:39;;;;;;;71.90;36.55;;;;;;;2.04;79.52;102325.73;1707795;83;21785;-90
2023/01/04 01:31:12;;;;;;;25.85;13.45;;;;;;;1.99;79.50;102319.27;1707481;82;21101;-89
2023/01/04 01:33:40;;;;;;;19.52;8.98;;;;;;;1.96;79.47;102317.70;1707580;82;21153;-89
2023/01/04 01:36:07;;;;;;;17.05;8.00;;;;;;;1.93;79.47;102313.16;1709403;82;21212;-89
2023/01/04 01:38:33;;;;;;;12.18;6.12;;;;;;;1.88;79.29;102306.66;1706464;83;21044;-89
2023/01/04 01:41:00;;;;;;;16.40;8.45;;;;;;;1.83;79.36;102297.56;1706473;82;22585;-89
2023/01/04 01:43:55;;;;;;;17.37;7.92;;;;;;;1.80;79.37;102299.89;1707232;82;21102;-89
2023/01/04 01:46:34;;;;;;;13.65;7.28;;;;;;;1.77;79.42;102302.25;1713191;82;21147;-83
2023/01/04 01:49:18;;;;;;;11.85;6.30;;;;;;;1.72;79.43;102304.43;1714049;82;21107;-89
2023/01/04 01:51:46;;;;;;;12.43;6.00;;;;;;;1.68;79.44;102298.86;1711974;82;21132;-89
2023/01/04 01:54:20;;;;;;;9.50;6.00;;;;;;;1.63;79.52;102305.33;1706051;83;21808;-89
2023/01/04 01:56:50;;;;;;;13.32;7.35;;;;;;;1.57;79.61;102305.72;1707927;83;21131;-90
2023/01/04 01:59:18;;;;;;;15.90;8.33;;;;;;;1.53;79.63;102301.05;1705842;82;21085;-82
2023/01/04 02:01:45;;;;;;;19.40;7.90;;;;;;;1.51;79.69;102288.33;1703173;82;21105;-88
2023/01/04 02:04:12;;;;;;;14.30;7.85;;;;;;;1.47;79.60;102299.23;1713806;82;21717;-90
2023/01/04 02:06:41;;;;;;;11.88;6.12;;;;;;;1.43;79.66;102295.45;1709592;82;21742;-87
2023/01/04 02:09:08;;;;;;;11.25;6.20;;;;;;;1.41;79.65;102303.86;1713155;82;21069;-88
2023/01/04 02:11:35;;;;;;;10.00;5.67;;;;;;;1.37;79.75;102293.64;1711170;82;21080;-82
2023/01/04 02:17:07;;;;;;;14.58;5.35;;;;;;;1.36;79.82;102304.37;1715540;82;21068;-88
2023/01/04 02:20:19;;;;;;;10.40;4.95;;;;;;;1.34;79.80;102294.26;1710160;83;21899;-88
2023/01/04 02:23:11;;;;;;;17.62;5.25;;;;;;;1.31;79.80;102291.78;1715792;83;21918;-88
2023/01/04 02:26:12;;;;;;;16.57;5.90;;;;;;;1.27;79.82;102284.12;1717576;82;21047;-86
2023/01/04 02:29:17;;;;;;;11.50;5.90;;;;;;;1.24;79.78;102276.45;1719728;82;21083;-86
2023/01/04 02:32:00;;;;;;;16.05;6.28;;;;;;;1.23;79.86;102278.55;1653474;85;21518;-86
2023/01/04 02:34:50;;;;;;;17.67;6.30;;;;;;;1.21;79.89;102282.30;1648779;86;21733;-83
2023/01/04 02:37:35;;;;;;;12.37;5.65;;;;;;;1.24;80.02;102284.23;1628462;86;21096;-83
2023/01/04 02:40:22;;;;;;;15.65;5.67;;;;;;;1.23;80.03;102283.73;1704956;82;21552;-83
2023/01/04 02:46:11;;;;;;;18.15;5.83;;;;;;;1.22;80.09;102260.78;1697592;83;21032;-84
2023/01/04 02:51:34;;;;;;;16.40;5.92;;;;;;;1.21;80.04;102251.17;1708712;82;21322;-83
2023/01/04 02:54:06;;;;;;;19.92;8.18;;;;;;;1.22;80.10;102246.88;1707129;83;21076;-83
2023/01/04 02:57:01;;;;;;;13.40;7.22;;;;;;;1.23;80.15;102255.20;1706678;82;21134;-88
2023/01/04 02:59:46;;;;;;;13.47;5.87;;;;;;;1.21;80.19;102258.95;1702551;82;21595;-88
2023/01/04 03:09:00;;;;;;;19.57;6.97;;;;;;;1.14;80.54;102263.08;1662368;85;21681;-89
2023/01/04 03:14:37;;;;;;;13.55;5.65;;;;;;;1.14;80.59;102259.19;1639368;86;21069;-88
2023/01/04 03:17:06;;;;;;;9.80;5.20;;;;;;;1.13;80.48;102261.28;1649347;85;21239;-88
2023/01/04 03:19:51;;;;;;;14.45;4.70;;;;;;;1.10;80.46;102257.11;1630946;85;21108;-83
2023/01/04 03:36:39;;;;;;;10.20;4.83;;;;;;;1.02;80.61;102252.95;1701495;83;21089;-83
2023/01/04 03:48:29;;;;;;;8.70;5.42;;;;;;;1.00;80.98;102223.39;1705107;83;21337;-82
2023/01/04 03:51:21;;;;;;;12.70;5.75;;;;;;;1.02;81.05;102216.65;1689989;84;21005;-82
2023/01/04 03:54:05;;;;;;;12.55;5.87;;;;;;;1.04;81.16;102211.20;1703018;83;21055;-82
2023/01/04 03:56:32;;;;;;;13.88;6.55;;;;;;;0.96;81.19;102181.63;1695165;82;21044;-83
2023/01/04 03:59:00;;;;;;;11.60;6.62;;;;;;;1.11;81.25;102196.30;1708698;82;22560;-83
2023/01/04 04:01:27;;;;;;;18.15;7.08;;;;;;;1.13;81.19;102189.96;1704196;83;21044;-84
2023/01/04 04:09:25;;;;;;;13.75;7.05;;;;;;;1.25;81.39;102179.72;1647821;85;21117;-83
2023/01/04 04:11:52;;;;;;;15.23;7.55;;;;;;;1.27;81.33;102175.17;1705690;83;21765;-82
2023/01/04 04:14:19;;;;;;;15.58;6.78;;;;;;;1.29;81.32;102154.16;1712183;82;21337;-83
2023/01/04 04:16:46;;;;;;;13.30;7.12;;;;;;;1.32;81.27;102149.23;1714018;83;21083;-84
2023/01/04 04:19:13;;;;;;;12.80;6.60;;;;;;;1.34;81.36;102146.38;1709328;83;21072;-83
2023/01/04 04:21:40;;;;;;;18.77;7.80;;;;;;;1.36;81.27;102145.22;1717335;82;21046;-83
2023/01/04 04:24:07;;;;;;;22.22;9.88;;;;;;;1.37;81.29;102140.56;1710070;83;21749;-83
2023/01/04 04:26:34;;;;;;;17.07;9.23;;;;;;;1.40;81.22;102139.91;1698159;83;21349;-83
2023/01/04 04:29:00;;;;;;;17.55;8.73;;;;;;;1.39;81.18;102137.70;1712553;83;21051;-83
2023/01/04 04:31:27;;;;;;;18.80;9.13;;;;;;;1.42;81.21;102121.48;1710545;83;21131;-83
2023/01/04 04:33:54;;;;;;;19.00;8.65;;;;;;;1.45;81.23;102119.16;1709363;83;21096;-84
2023/01/04 04:36:21;;;;;;;19.85;9.15;;;;;;;1.45;81.11;102116.56;1711055;82;21768;-83
2023/01/04 04:38:48;;;;;;;22.65;9.85;;;;;;;1.45;81.06;102113.56;1709238;83;21135;-83
2023/01/04 04:44:00;;;;;;;18.02;9.43;;;;;;;1.39;80.88;102116.02;1709191;83;21075;-83
2023/01/04 04:46:26;;;;;;;15.55;8.40;;;;;;;1.34;80.86;102116.55;1709639;82;21079;-82
2023/01/04 04:48:53;;;;;;;15.58;8.90;;;;;;;1.32;80.89;102114.22;1715234;82;21813;-83
2023/01/04 04:51:20;;;;;;;19.15;9.95;;;;;;;1.30;80.94;102105.80;1712153;82;21126;-83
2023/01/04 04:53:48;;;;;;;19.57;9.45;;;;;;;1.27;80.91;102102.94;1719275;82;21554;-83
2023/01/04 04:56:15;;;;;;;18.62;10.00;;;;;;;1.22;80.89;102105.16;1714442;82;21591;-85
2023/01/04 04:58:42;;;;;;;19.75;10.63;;;;;;;1.21;80.96;102094.25;1708678;82;21812;-84
2023/01/04 05:01:09;;;;;;;19.75;10.13;;;;;;;1.23;81.08;102093.98;1715290;82;21866;-87
2023/01/04 05:03:35;;;;;;;18.57;9.75;;;;;;;1.18;81.28;102065.45;1715642;82;21082;-85
2023/01/04 05:06:13;;;;;;;23.60;11.00;;;;;;;1.39;81.38;102087.48;1711250;82;21062;-84
2023/01/04 05:08:42;;;;;;;28.05;12.40;;;;;;;1.46;81.39;102075.55;1711006;82;21076;-84
2023/01/04 05:11:10;;;;;;;20.25;11.88;;;;;;;1.54;81.43;102068.92;1711894;82;21082;-90
2023/01/04 05:13:37;;;;;;;23.65;13.65;;;;;;;1.62;81.41;102072.55;1708915;82;22931;-91
2023/01/04 05:16:05;;;;;;;21.85;13.43;;;;;;;1.70;81.41;102075.36;1706635;83;21078;-91
2023/01/04 05:18:32;;;;;;;23.35;14.25;;;;;;;1.79;81.38;102073.52;1708959;82;21082;-93
2023/01/04 05:20:59;;;;;;;23.92;14.78;;;;;;;1.88;81.41;102065.59;1719593;82;21566;-90
2023/01/04 05:23:26;;;;;;;32.13;17.00;;;;;;;1.97;81.41;102074.13;1716762;82;21067;-90
2023/01/04 05:25:59;;;;;;;34.08;17.23;;;;;;;2.07;81.30;102064.97;1712639;83;21989;-88
2023/01/04 05:28:25;;;;;;;34.33;18.02;;;;;;;2.13;81.20;102068.05;1713790;82;21079;-89
2023/01/04 05:30:54;;;;;;;34.27;17.90;;;;;;;2.17;81.03;102059.22;1709657;83;21115;-86
2023/01/04 05:33:29;;;;;;;32.00;17.60;;;;;;;2.21;80.88;102066.47;1710505;83;21056;-87
2023/01/04 05:35:57;;;;;;;32.50;18.70;;;;;;;2.21;80.76;102065.16;1709033;83;21180;-84
2023/01/04 05:38:24;;;;;;;32.35;19.00;;;;;;;2.23;80.74;102058.40;1707870;83;22549;-87
2023/01/04 05:40:52;;;;;;;34.03;19.10;;;;;;;2.26;80.62;102048.27;1708837;83;21115;-89
2023/01/04 05:43:21;;;;;;;34.98;20.97;;;;;;;2.24;80.52;102035.55;1709676;83;21080;-89
2023/01/04 05:45:53;;;;;;;36.42;23.67;;;;;;;2.24;80.52;102029.95;1720156;82;21072;-88
2023/01/04 05:48:20;;;;;;;41.60;26.97;;;;;;;2.23;80.49;102032.02;1712346;82;21526;-86
2023/01/04 05:50:47;;;;;;;39.23;25.97;;;;;;;2.25;80.47;102025.28;1715484;82;21748;-88
2023/01/04 05:53:16;;;;;;;33.23;19.25;;;;;;;2.23;80.38;102019.43;1710206;82;21048;-88
2023/01/04 05:55:44;;;;;;;27.15;17.75;;;;;;;2.22;80.31;102013.34;1710413;83;21120;-90
2023/01/04 05:58:11;;;;;;;29.25;18.40;;;;;;;2.23;80.35;102008.64;1724999;82;21079;-88
2023/01/04 06:00:37;;;;;;;30.62;17.62;;;;;;;2.26;80.37;102006.29;1709738;83;21124;-88
2023/01/04 06:03:11;;;;;;;31.00;18.02;;;;;;;2.30;80.35;102002.25;1703418;83;22669;-88
2023/01/04 06:05:38;;;;;;;33.05;19.50;;;;;;;2.32;80.29;102002.87;1718850;82;21069;-88
2023/01/04 06:08:06;;;;;;;26.40;16.27;;;;;;;2.34;80.26;101993.49;1709554;83;21071;-90
2023/01/04 06:10:33;;;;;;;27.90;16.07;;;;;;;2.41;80.37;101991.00;1694135;83;21082;-92
2023/01/04 06:13:01;;;;;;;26.20;18.20;;;;;;;2.45;80.23;101995.64;1689428;83;21071;-94
2023/01/04 06:15:33;;;;;;;31.55;18.70;;;;;;;2.46;80.07;101997.84;1702903;82;21803;-93
2023/01/04 06:18:02;;;;;;;27.87;17.42;;;;;;;2.43;80.03;101992.02;1714097;82;21060;-90
2023/01/04 06:20:29;;;;;;;29.95;19.80;;;;;;;2.47;80.08;101982.77;1709039;83;21151;-90
2023/01/04 06:22:57;;;;;;;25.05;18.82;;;;;;;2.49;80.11;101983.39;1712908;82;21075;-91
2023/01/04 06:25:44;;;;;;;22.25;15.85;;;;;;;2.50;79.98;101978.72;1693972;83;21089;-89
2023/01/04 06:28:11;;;;;;;20.50;12.45;;;;;;;2.51;79.96;101971.41;1693528;83;21440;-84
2023/01/04 06:30:38;;;;;;;19.98;10.85;;;;;;;2.55;80.11;101960.86;1663367;85;21120;-84
2023/01/04 06:33:05;;;;;;;17.20;10.25;;;;;;;2.60;80.01;101959.53;1668697;85;21081;-84
2023/01/04 06:35:32;;;;;;;21.20;10.70;;;;;;;2.61;79.92;101949.66;1655013;85;21431;-84
2023/01/04 06:38:02;;;;;;;19.07;9.53;;;;;;;2.58;79.60;101940.72;1671249;85;21188;-89
2023/01/04 06:40:49;;;;;;;19.05;11.28;;;;;;;2.52;79.55;101932.95;1710657;83;21814;-90
2023/01/04 06:43:16;;;;;;;16.87;9.63;;;;;;;2.51;79.60;101932.43;1695884;83;21066;-90
2023/01/04 06:45:43;;;;;;;18.07;9.80;;;;;;;2.56;79.67;101930.60;1712229;82;21067;-90
2023/01/04 06:48:11;;;;;;;20.37;11.12;;;;;;;2.58;79.64;101929.92;1712765;82;21135;-90
2023/01/04 06:50:37;;;;;;;17.75;10.55;;;;;;;2.59;79.53;101920.41;1708404;82;21060;-90
2023/01/04 06:53:04;;;;;;;18.60;10.30;;;;;;;2.60;79.54;101925.73;1712436;82;21914;-85
2023/01/04 06:55:31;;;;;;;16.27;9.45;;;;;;;2.61;79.56;101924.03;1708961;83;21051;-84
2023/01/04 06:57:59;;;;;;;17.85;8.90;;;;;;;2.64;79.59;101912.58;1691921;83;21199;-84
2023/01/04 07:00:27;;;;;;;18.23;9.55;;;;;;;2.69;79.61;101899.55;1709402;82;21094;-84
2023/01/04 07:02:54;;;;;;;24.67;13.22;;;;;;;2.73;79.58;101892.07;1719945;82;21070;-84
2023/01/04 07:05:30;;;;;;;22.40;12.88;;;;;;;2.72;79.26;101894.55;1710083;83;21784;-84
2023/01/04 07:07:54;;;;;;;16.60;9.05;;;;;;;2.71;79.28;101890.16;1693293;82;21131;-84
2023/01/04 07:10:21;;;;;;;14.90;8.63;;;;;;;2.72;79.27;101884.16;1721506;82;21064;-84
2023/01/04 07:12:48;;;;;;;14.55;7.30;;;;;;;2.72;79.22;101882.48;1709189;83;21304;-84
2023/01/04 07:15:16;;;;;;;13.98;7.67;;;;;;;2.76;79.24;101877.12;1704327;82;21059;-84
2023/01/04 07:17:48;;;;;;;20.90;10.30;;;;;;;2.77;79.16;101874.11;1693889;83;21644;-84
2023/01/04 07:20:15;;;;;;;19.42;8.28;;;;;;;2.77;79.08;101867.20;1688646;83;21348;-84
2023/01/04 07:22:42;;;;;;;22.45;10.63;;;;;;;2.75;78.94;101867.90;1684395;83;21583;-84
2023/01/04 07:25:10;;;;;;;22.65;10.75;;;;;;;2.74;78.83;101870.91;1689478;83;21474;-84
2023/01/04 07:27:37;;;;;;;21.33;10.45;;;;;;;2.70;78.86;101861.03;1690172;83;21484;-84
2023/01/04 07:30:05;;;;;;;23.10;12.03;;;;;;;2.71;78.87;101857.26;1692216;83;21810;-85
2023/01/04 07:32:32;;;;;;;24.10;12.73;;;;;;;2.74;78.95;101851.41;1680628;83;21088;-84
2023/01/04 07:34:58;;;;;;;20.50;11.40;;;;;;;2.78;78.93;101848.23;1692606;83;21076;-84
2023/01/04 07:37:25;;;;;;;21.50;12.13;;;;;;;2.78;78.82;101842.10;1678808;83;21050;-84
2023/01/04 07:39:52;;;;;;;16.48;9.88;;;;;;;2.79;78.80;101837.02;1673840;83;21097;-84
2023/01/04 07:42:20;;;;;;;17.12;10.23;;;;;;;2.83;78.86;101838.16;1698497;83;21740;-83
2023/01/04 07:44:48;;;;;;;16.82;10.00;;;;;;;2.85;78.79;101830.07;1702146;83;21027;-83
2023/01/04 07:47:30;;;;;;;20.57;10.78;;;;;;;2.89;78.81;101825.59;1705826;83;21059;-83
2023/01/04 07:49:57;;;;;;;18.82;10.18;;;;;;;2.94;78.76;101825.55;1702194;83;21710;-83
2023/01/04 07:52:26;;;;;;;16.73;8.30;;;;;;;3.00;78.74;101825.98;1693651;83;21059;-83
2023/01/04 07:54:53;;;;;;;20.50;9.73;;;;;;;3.03;78.65;101821.02;1705828;83;21768;-83
2023/01/04 07:57:20;;;;;;;17.02;9.78;;;;;;;3.12;78.76;101811.68;1701668;83;21737;-83
2023/01/04 07:59:47;;;;;;;20.85;10.18;;;;;;;3.19;78.66;101804.83;1711562;83;21091;-83
2023/01/04 08:02:17;;;;;;;17.32;9.83;;;;;;;3.26;78.62;101791.43;1701554;83;21110;-83
2023/01/04 08:04:45;;;;;;;23.35;11.12;;;;;;;3.31;78.50;101784.86;1705523;83;21079;-85
2023/01/04 08:07:11;;;;;;;18.20;10.38;;;;;;;3.37;78.40;101779.59;1702742;83;21780;-85
2023/01/04 08:09:39;;;;;;;16.77;10.88;;;;;;;3.40;78.32;101773.31;1709749;83;21055;-85
2023/01/04 08:12:06;;;;;;;18.50;10.82;;;;;;;3.43;78.23;101768.30;1677422;83;21027;-85
2023/01/04 08:14:33;;;;;;;17.50;10.70;;;;;;;3.46;78.20;101758.13;1694372;83;21088;-91
2023/01/04 08:17:00;;;;;;;17.45;11.05;;;;;;;3.49;78.05;101749.20;1693456;83;21696;-91
2023/01/04 08:19:27;;;;;;;19.67;10.00;;;;;;;3.49;77.96;101738.42;1693499;84;22747;-90
2023/01/04 08:21:56;;;;;;;20.82;10.55;;;;;;;3.51;77.87;101733.33;1697676;84;21330;-90
2023/01/04 08:24:23;;;;;;;25.57;11.85;;;;;;;3.51;77.94;101734.63;1695902;84;21073;-85
2023/01/04 08:26:51;;;;;;;25.75;12.07;;;;;;;3.58;77.93;101735.94;1696260;84;21093;-85
2023/01/04 08:29:19;;;;;;;23.18;11.93;;;;;;;3.62;77.95;101720.64;1668104;84;21052;-91
2023/01/04 08:31:46;;;;;;;27.80;13.83;;;;;;;3.56;77.54;101705.88;1694279;82;21788;-92
2023/01/04 08:34:13;;;;;;;28.50;12.25;;;;;;;3.50;77.61;101701.57;1697778;84;21052;-91
2023/01/04 08:36:51;;;;;;;26.48;13.45;;;;;;;3.40;77.65;101688.73;1695341;84;21090;-91
2023/01/04 08:39:18;;;;;;;27.42;13.80;;;;;;;3.53;77.73;101716.48;1693846;84;21048;-91
2023/01/04 08:41:51;;;;;;;28.83;16.05;;;;;;;3.56;77.82;101712.39;1695281;83;21084;-90
2023/01/04 08:44:21;;;;;;;;;;;;;;;3.61;77.85;101704.51;1699950;83;23060;-85
2023/01/04 08:46:48;;;;;;;26.17;15.40;;;;;;;3.64;77.76;101707.33;1693713;84;20884;-85
2023/01/04 08:49:16;;;;;;;28.23;15.60;;;;;;;3.68;77.78;101685.91;1696119;84;21068;-85
2023/01/04 08:51:44;;;;;;;27.98;15.78;;;;;;;3.75;77.82;101686.31;1696311;84;21051;-91
2023/01/04 08:54:11;;;;;;;28.27;15.50;;;;;;;3.82;77.89;101674.21;1692862;84;21079;-91
2023/01/04 08:56:38;;;;;;;23.42;15.53;;;;;;;3.87;77.78;101667.62;1693263;84;21786;-90
2023/01/04 08:59:09;;;;;;;25.92;15.63;;;;;;;3.91;77.72;101662.22;1671169;84;21098;-91
2023/01/04 09:01:38;;;;;;;29.15;16.20;;;;;;;3.98;77.75;101658.81;1695953;84;21120;-91
2023/01/04 09:04:05;;;;;;;23.30;15.93;;;;;;;4.03;77.70;101647.37;1694662;84;21071;-91
2023/01/04 09:06:32;;;;;;;25.57;16.67;;;;;;;4.08;77.72;101635.15;1695340;84;22157;-90
2023/01/04 09:08:58;;;;;;;23.95;14.90;;;;;;;4.17;77.70;101623.55;1694421;84;21994;-90
2023/01/04 09:11:27;;;;;;;25.90;14.00;;;;;;;4.21;77.55;101624.23;1696077;84;22034;-91
2023/01/04 09:13:58;;;;;;;21.23;13.80;;;;;;;4.23;77.52;101616.11;1711930;82;21033;-91
2023/01/04 09:16:25;;;;;;;23.05;13.48;;;;;;;4.28;77.49;101602.98;1714330;82;21080;-90
2023/01/04 09:18:52;;;;;;;22.93;13.68;;;;;;;4.33;77.52;101594.14;1723588;82;21090;-84
2023/01/04 09:21:20;;;;;;;28.77;13.48;;;;;;;4.37;77.40;101592.22;1713880;82;21873;-85
2023/01/04 09:23:47;;;;;;;23.95;15.00;;;;;;;4.40;77.36;101586.80;1712922;83;21155;-84
2023/01/04 09:26:20;;;;;;;22.73;14.98;;;;;;;4.46;77.35;101578.47;1726598;82;21082;-85
2023/01/04 09:28:47;;;;;;;32.60;23.10;;;;;;;4.47;77.21;101569.86;1714915;83;21091;-85
2023/01/04 09:31:17;;;;;;;27.13;15.80;;;;;;;4.48;77.18;101563.82;1715508;83;21094;-85
2023/01/04 09:33:44;;;;;;;26.20;16.52;;;;;;;4.52;77.21;101563.20;1718976;82;21767;-85
2023/01/04 09:36:13;;;;;;;28.83;16.55;;;;;;;4.54;77.19;101560.28;1718477;82;21047;-85
2023/01/04 09:38:40;;;;;;;28.57;16.40;;;;;;;4.60;77.12;101555.89;1718599;82;22300;-85
2023/01/04 09:41:15;;;;;;;23.52;17.48;;;;;;;4.62;77.07;101550.36;1712989;83;21153;-85
2023/01/04 09:43:55;;;;;;;21.82;16.17;;;;;;;4.62;76.94;101542.54;1666264;83;21062;-85
2023/01/04 09:46:51;;;;;;;26.02;17.05;;;;;;;4.63;76.91;101532.17;1719587;82;21801;-84
2023/01/04 09:49:25;;;;;;;24.27;16.80;;;;;;;4.64;76.86;101517.45;1714682;83;21083;-85
2023/01/04 09:52:15;;;;;;;24.00;16.48;;;;;;;4.60;76.78;101502.02;1695118;82;21297;-85
2023/01/04 09:54:57;;;;;;;24.63;18.42;;;;;;;4.58;76.78;101493.59;1717676;82;21410;-85
2023/01/04 09:57:35;;;;;;;27.27;17.87;;;;;;;4.57;76.78;101481.37;1718633;82;20986;-84
2023/01/04 10:00:28;;;;;;;30.17;17.82;;;;;;;4.57;76.78;101470.53;1704079;82;21783;-85
2023/01/04 10:03:06;;;;;;;27.35;17.52;;;;;;;4.58;76.84;101464.53;1716921;83;21054;-85
2023/01/04 10:05:33;;;;;;;23.52;16.80;;;;;;;4.61;76.84;101456.87;1715007;83;21079;-84
2023/01/04 10:08:02;;;;;;;23.87;17.17;;;;;;;4.61;76.86;101455.56;1727849;82;21047;-84
2023/01/04 10:11:03;;;;;;;27.55;17.85;;;;;;;4.65;76.84;101451.44;1720011;82;21060;-84
2023/01/04 10:13:54;;;;;;;33.55;18.45;;;;;;;4.68;76.88;101440.79;1719356;82;22614;-84
2023/01/04 10:16:35;;;;;;;30.72;19.70;;;;;;;4.75;76.97;101421.20;1699956;83;21067;-86
2023/01/04 10:19:36;;;;;;;36.50;21.30;;;;;;;4.81;76.98;101415.03;1698423;83;21050;-83
2023/01/04 10:22:32;;;;;;;39.05;23.52;;;;;;;4.84;76.89;101389.14;1693071;83;21781;-84
2023/01/04 10:25:34;;;;;;;34.08;22.85;;;;;;;4.86;76.79;101378.39;1696230;83;21093;-84
2023/01/04 10:28:07;;;;;;;36.28;23.47;;;;;;;4.85;76.77;101373.97;1703737;83;21962;-84
2023/01/04 10:30:46;;;;;;;38.35;25.55;;;;;;;4.86;76.78;101360.13;1704417;83;21063;-83
2023/01/04 10:33:17;;;;;;;34.88;21.25;;;;;;;4.90;76.79;101352.46;1701961;82;21246;-84
2023/01/04 10:35:44;;;;;;;31.60;19.85;;;;;;;4.90;76.65;101347.25;1678282;84;21116;-83
2023/01/04 10:42:16;;;;;;;37.93;23.77;;;;;;;4.83;76.47;101328.64;1697584;83;22689;-92
2023/01/04 10:45:19;;;;;;;38.75;24.23;;;;;;;4.82;76.50;101322.03;1699445;83;21045;-86
2023/01/04 10:48:24;;;;;;;39.87;23.93;;;;;;;4.79;76.45;101313.63;1709985;83;21125;-84
2023/01/04 10:51:02;;;;;;;36.15;21.48;;;;;;;4.81;76.53;101300.69;1700237;83;21674;-84
2023/01/04 10:53:53;;;;;;;32.30;21.60;;;;;;;4.80;76.47;101280.20;1704937;84;21063;-84
2023/01/04 10:56:31;;;;;;;37.58;23.38;;;;;;;4.77;76.45;101270.92;1702545;83;22866;-83
2023/01/04 10:59:22;;;;;;;33.63;21.35;;;;;;;4.76;76.45;101262.59;1696605;83;21089;-91
2023/01/04 11:02:11;;;;;;;37.05;22.98;;;;;;;4.73;76.29;101246.80;1694608;83;21081;-89
2023/01/04 11:05:02;;;;;;;40.70;22.17;;;;;;;4.64;76.32;101234.13;1692693;83;21077;-90
2023/01/04 11:07:41;;;;;;;29.55;19.73;;;;;;;4.66;76.51;101233.80;1699692;83;21115;-90
2023/01/04 11:10:35;;;;;;;39.63;22.07;;;;;;;4.68;76.51;101224.77;1711380;83;22636;-84
2023/01/04 11:13:02;;;;;;;30.88;21.87;;;;;;;4.70;76.48;101220.53;1708332;83;21418;-84
2023/01/04 11:15:30;;;;;;;32.67;20.37;;;;;;;4.70;76.55;101204.88;1700626;82;21557;-85
2023/01/04 11:18:01;;;;;;;33.85;21.25;;;;;;;4.74;76.66;101194.22;1705149;83;21077;-84
2023/01/04 11:20:36;;;;;;;31.65;21.05;;;;;;;4.80;76.72;101185.00;1708763;83;21122;-85
2023/01/04 11:23:16;;;;;;;33.65;21.37;;;;;;;4.82;76.57;101172.98;1697758;83;21795;-85
2023/01/04 11:25:59;;;;;;;36.40;20.95;;;;;;;4.80;76.53;101152.82;1697828;83;21045;-91
2023/01/04 11:28:40;;;;;;;34.18;21.52;;;;;;;4.80;76.46;101148.91;1701102;83;21063;-91
2023/01/04 11:31:16;;;;;;;34.35;25.68;;;;;;;4.76;76.47;101133.91;1701574;83;21140;-91
2023/01/04 11:34:01;;;;;;;39.85;26.95;;;;;;;4.76;76.48;101114.35;1699802;83;21082;-84
2023/01/04 11:36:43;;;;;;;42.38;29.50;;;;;;;4.73;76.56;101108.58;1706498;83;21760;-84
2023/01/04 11:39:23;;;;;;;41.53;26.50;;;;;;;4.83;76.58;101112.57;1693964;83;21078;-84
2023/01/04 11:42:05;;;;;;;43.10;28.73;;;;;;;4.85;76.64;101106.61;1696437;83;21059;-86
2023/01/04 11:44:38;;;;;;;40.05;28.05;;;;;;;4.90;76.56;101096.44;1702580;83;20985;-83
2023/01/04 11:47:20;;;;;;;38.57;25.70;;;;;;;4.93;76.60;101095.28;1704906;83;21128;-84
2023/01/04 11:49:47;;;;;;;35.58;23.83;;;;;;;4.97;76.58;101091.13;1700193;83;21802;-84
2023/01/04 11:52:35;;;;;;;36.28;22.67;;;;;;;5.03;76.52;101088.45;1693552;82;21280;-86
2023/01/04 11:55:27;;;;;;;37.13;23.22;;;;;;;5.01;76.43;101075.73;1699218;83;21134;-84
2023/01/04 11:58:16;;;;;;;41.10;24.18;;;;;;;5.00;76.40;101046.53;1702761;83;21067;-83
2023/01/04 12:00:58;;;;;;;36.03;21.73;;;;;;;5.01;76.48;101023.55;1699708;83;21098;-84
2023/01/04 12:03:41;;;;;;;40.48;24.25;;;;;;;5.05;76.54;101036.35;1691360;83;22628;-84
2023/01/04 12:06:21;;;;;;;37.93;24.37;;;;;;;5.02;76.55;101026.63;1675830;83;21414;-84
2023/01/04 12:08:48;;;;;;;36.90;24.63;;;;;;;5.02;76.65;101027.05;1703339;83;21082;-84
2023/01/04 12:11:28;;;;;;;36.17;23.75;;;;;;;4.99;76.70;101016.06;1698414;83;21077;-84
2023/01/04 12:13:57;;;;;;;31.27;23.07;;;;;;;4.99;76.79;101003.40;1701437;83;21649;-91
2023/01/04 12:17:12;;;;;;;33.60;22.90;;;;;;;4.99;76.83;100991.66;1671821;83;21809;-91
2023/01/04 12:19:49;;;;;;;37.53;23.27;;;;;;;5.01;76.88;100979.20;1720432;82;21113;-90
2023/01/04 12:22:35;;;;;;;35.98;24.00;;;;;;;5.06;77.06;100961.16;1688458;82;21578;-90
2023/01/04 12:25:15;;;;;;;41.40;27.22;;;;;;;5.09;77.00;100954.80;1714300;83;22174;-90
2023/01/04 12:27:50;;;;;;;42.35;27.98;;;;;;;5.10;77.03;100930.48;1705581;82;21094;-89
2023/01/04 12:30:43;;;;;;;54.40;30.02;;;;;;;5.10;77.08;100922.66;1713035;83;21789;-92
2023/01/04 12:33:35;;;;;;;72.00;42.60;;;;;;;5.09;76.98;100909.14;1692083;82;21540;-86
2023/01/04 12:36:16;;;;;;;54.48;34.03;;;;;;;5.08;77.03;100905.14;1717688;82;21716;-92
2023/01/04 12:38:56;;;;;;;48.70;29.42;;;;;;;5.10;77.16;100896.56;1703663;82;21082;-88
2023/01/04 12:41:42;;;;;;;42.27;27.15;;;;;;;5.09;77.12;100880.83;1722141;82;21146;-90